sensor_id;sensor_type;location;lat;lon;timestamp;pressure;altitude;pressure_sealevel;temperature;humidity
68193;BME280;55012;47.562;18.414;2024-03-17T00:00:41;99494.47;;;9.73;100.00
68193;BME280;55012;47.562;18.414;2024-03-17T00:03:07;99512.13;;;9.70;100.00
68193;BME280;55012;47.562;18.414;2024-03-17T00:05:36;99523.13;;;9.65;100.00
68193;BME280;55012;47.562;18.414;2024-03-17T00:08:03;99528.41;;;9.62;100.00
68193;BME280;55012;47.562;18.414;2024-03-17T00:10:32;99540.19;;;9.57;100.00
68193;BME280;55012;47.562;18.414;2024-03-17T00:12:59;99546.28;;;9.54;100.00
68193;BME280;55012;47.562;18.414;2024-03-17T00:15:24;99547.25;;;9.49;100.00
68193;BME280;55012;47.562;18.414;2024-03-17T00:17:50;99551.84;;;9.49;100.00
68193;BME280;55012;47.562;18.414;2024-03-17T00:20:15;99566.03;;;9.46;100.00
68193;BME280;55012;47.562;18.414;2024-03-17T00:22:50;99555.56;;;9.44;100.00
68193;BME280;55012;47.562;18.414;2024-03-17T00:25:16;99571.75;;;9.44;100.00
68193;BME280;55012;47.562;18.414;2024-03-17T00:27:45;99565.44;;;9.40;100.00
68193;BME280;55012;47.562;18.414;2024-03-17T00:30:13;99581.69;;;9.32;100.00
68193;BME280;55012;47.562;18.414;2024-03-17T00:32:39;99593.47;;;9.27;100.00
68193;BME280;55012;47.562;18.414;2024-03-17T00:35:09;99593.78;;;9.25;100.00
68193;BME280;55012;47.562;18.414;2024-03-17T00:37:36;99603.78;;;9.25;100.00
68193;BME280;55012;47.562;18.414;2024-03-17T00:40:02;99599.97;;;9.26;100.00
68193;BME280;55012;47.562;18.414;2024-03-17T00:42:28;99582.19;;;9.25;100.00
68193;BME280;55012;47.562;18.414;2024-03-17T00:44:54;99560.94;;;9.23;100.00
68193;BME280;55012;47.562;18.414;2024-03-17T00:47:20;99564.44;;;9.24;100.00
68193;BME280;55012;47.562;18.414;2024-03-17T00:49:45;99552.72;;;9.20;100.00
68193;BME280;55012;47.562;18.414;2024-03-17T00:52:10;99545.91;;;9.14;100.00
68193;BME280;55012;47.562;18.414;2024-03-17T00:54:36;99546.59;;;9.11;100.00
68193;BME280;55012;47.562;18.414;2024-03-17T00:57:01;99547.56;;;9.06;100.00
68193;BME280;55012;47.562;18.414;2024-03-17T00:59:27;99546.16;;;9.00;100.00
68193;BME280;55012;47.562;18.414;2024-03-17T01:01:52;99563.97;;;8.92;100.00
68193;BME280;55012;47.562;18.414;2024-03-17T01:04:18;99560.69;;;8.87;100.00
68193;BME280;55012;47.562;18.414;2024-03-17T01:06:43;99587.66;;;8.87;100.00
68193;BME280;55012;47.562;18.414;2024-03-17T01:09:08;99598.44;;;8.87;100.00
68193;BME280;55012;47.562;18.414;2024-03-17T01:11:34;99601.59;;;8.89;100.00
68193;BME280;55012;47.562;18.414;2024-03-17T01:13:59;99598.59;;;8.90;100.00
68193;BME280;55012;47.562;18.414;2024-03-17T01:16:25;99610.00;;;8.96;100.00
68193;BME280;55012;47.562;18.414;2024-03-17T01:18:50;99605.50;;;9.00;100.00
68193;BME280;55012;47.562;18.414;2024-03-17T01:21:15;99601.84;;;9.05;100.00
68193;BME280;55012;47.562;18.414;2024-03-17T01:23:41;99590.59;;;9.03;100.00
68193;BME280;55012;47.562;18.414;2024-03-17T01:26:06;99576.63;;;9.00;100.00
68193;BME280;55012;47.562;18.414;2024-03-17T01:28:31;99572.56;;;8.94;100.00
68193;BME280;55012;47.562;18.414;2024-03-17T01:30:57;99568.44;;;8.88;100.00
68193;BME280;55012;47.562;18.414;2024-03-17T01:33:22;99592.56;;;8.85;100.00
68193;BME280;55012;47.562;18.414;2024-03-17T01:35:48;99602.09;;;8.82;100.00
68193;BME280;55012;47.562;18.414;2024-03-17T01:38:13;99619.88;;;8.83;100.00
68193;BME280;55012;47.562;18.414;2024-03-17T01:40:39;99624.63;;;8.86;100.00
68193;BME280;55012;47.562;18.414;2024-03-17T01:43:05;99640.97;;;8.90;100.00
68193;BME280;55012;47.562;18.414;2024-03-17T01:45:33;99640.31;;;8.93;100.00
68193;BME280;55012;47.562;18.414;2024-03-17T01:48:00;99640.78;;;8.95;100.00
68193;BME280;55012;47.562;18.414;2024-03-17T01:50:32;99647.44;;;8.97;100.00
68193;BME280;55012;47.562;18.414;2024-03-17T01:53:01;99640.94;;;8.98;100.00
68193;BME280;55012;47.562;18.414;2024-03-17T01:55:27;99649.19;;;9.02;100.00
68193;BME280;55012;47.562;18.414;2024-03-17T01:57:53;99649.34;;;8.97;100.00
68193;BME280;55012;47.562;18.414;2024-03-17T02:00:19;99655.06;;;8.95;100.00
68193;BME280;55012;47.562;18.414;2024-03-17T02:02:44;99648.72;;;8.91;100.00
68193;BME280;55012;47.562;18.414;2024-03-17T02:05:10;99661.31;;;8.79;100.00
68193;BME280;55012;47.562;18.414;2024-03-17T02:07:36;99680.38;;;8.65;100.00
68193;BME280;55012;47.562;18.414;2024-03-17T02:10:02;99710.06;;;8.56;100.00
68193;BME280;55012;47.562;18.414;2024-03-17T02:12:31;99727.84;;;8.49;100.00
68193;BME280;55012;47.562;18.414;2024-03-17T02:14:59;99751.97;;;8.45;100.00
68193;BME280;55012;47.562;18.414;2024-03-17T02:17:25;99772.25;;;8.42;100.00
68193;BME280;55012;47.562;18.414;2024-03-17T02:19:51;99770.97;;;8.40;100.00
68193;BME280;55012;47.562;18.414;2024-03-17T02:22:17;99788.91;;;8.36;100.00
68193;BME280;55012;47.562;18.414;2024-03-17T02:24:43;99792.84;;;8.30;100.00
68193;BME280;55012;47.562;18.414;2024-03-17T02:27:09;99811.84;;;8.25;100.00
68193;BME280;55012;47.562;18.414;2024-03-17T02:29:34;99834.03;;;8.22;100.00
68193;BME280;55012;47.562;18.414;2024-03-17T02:32:02;99862.09;;;8.21;100.00
68193;BME280;55012;47.562;18.414;2024-03-17T02:34:32;99868.91;;;8.18;100.00
68193;BME280;55012;47.562;18.414;2024-03-17T02:36:58;99888.25;;;8.11;100.00
68193;BME280;55012;47.562;18.414;2024-03-17T02:39:23;99893.91;;;8.10;100.00
68193;BME280;55012;47.562;18.414;2024-03-17T02:42:04;99879.16;;;8.07;100.00
68193;BME280;55012;47.562;18.414;2024-03-17T02:44:34;99883.63;;;8.03;100.00
68193;BME280;55012;47.562;18.414;2024-03-17T02:47:00;99902.59;;;7.98;100.00
68193;BME280;55012;47.562;18.414;2024-03-17T02:49:27;99918.72;;;7.89;100.00
68193;BME280;55012;47.562;18.414;2024-03-17T02:51:55;99928.84;;;7.84;100.00
68193;BME280;55012;47.562;18.414;2024-03-17T02:54:24;99956.25;;;7.86;100.00
68193;BME280;55012;47.562;18.414;2024-03-17T02:56:49;99952.63;;;7.91;100.00
68193;BME280;55012;47.562;18.414;2024-03-17T02:59:14;99951.84;;;7.90;100.00
68193;BME280;55012;47.562;18.414;2024-03-17T03:01:40;99931.22;;;7.85;100.00
68193;BME280;55012;47.562;18.414;2024-03-17T03:04:06;99941.94;;;7.77;100.00
68193;BME280;55012;47.562;18.414;2024-03-17T03:06:33;99944.41;;;7.65;100.00
68193;BME280;55012;47.562;18.414;2024-03-17T03:08:58;99966.75;;;7.65;100.00
68193;BME280;55012;47.562;18.414;2024-03-17T03:11:23;99971.97;;;7.62;100.00
68193;BME280;55012;47.562;18.414;2024-03-17T03:13:49;99989.03;;;7.57;100.00
68193;BME280;55012;47.562;18.414;2024-03-17T03:16:14;99988.03;;;7.53;100.00
68193;BME280;55012;47.562;18.414;2024-03-17T03:18:40;100000.22;;;7.50;100.00
68193;BME280;55012;47.562;18.414;2024-03-17T03:21:06;100003.06;;;7.45;100.00
68193;BME280;55012;47.562;18.414;2024-03-17T03:23:32;100016.00;;;7.43;100.00
68193;BME280;55012;47.562;18.414;2024-03-17T03:25:59;99961.38;;;7.43;100.00
68193;BME280;55012;47.562;18.414;2024-03-17T03:28:25;99953.13;;;7.39;100.00
68193;BME280;55012;47.562;18.414;2024-03-17T03:30:52;99875.81;;;7.31;100.00
68193;BME280;55012;47.562;18.414;2024-03-17T03:33:19;99809.63;;;7.30;100.00
68193;BME280;55012;47.562;18.414;2024-03-17T03:35:44;99789.50;;;7.27;100.00
68193;BME280;55012;47.562;18.414;2024-03-17T03:38:11;99762.56;;;7.27;100.00
68193;BME280;55012;47.562;18.414;2024-03-17T03:40:36;99723.75;;;7.20;100.00
68193;BME280;55012;47.562;18.414;2024-03-17T03:43:02;99697.97;;;7.19;100.00
68193;BME280;55012;47.562;18.414;2024-03-17T03:45:27;99710.78;;;7.13;100.00
68193;BME280;55012;47.562;18.414;2024-03-17T03:47:53;99715.31;;;7.04;100.00
68193;BME280;55012;47.562;18.414;2024-03-17T03:50:20;99679.69;;;6.98;100.00
68193;BME280;55012;47.562;18.414;2024-03-17T03:52:48;99684.41;;;6.93;100.00
68193;BME280;55012;47.562;18.414;2024-03-17T03:55:16;99650.38;;;6.88;100.00
68193;BME280;55012;47.562;18.414;2024-03-17T03:57:42;99628.88;;;6.88;100.00
68193;BME280;55012;47.562;18.414;2024-03-17T04:00:08;99623.31;;;6.85;100.00
68193;BME280;55012;47.562;18.414;2024-03-17T04:02:41;99535.66;;;6.84;100.00
68193;BME280;55012;47.562;18.414;2024-03-17T04:05:07;99517.81;;;6.79;100.00
68193;BME280;55012;47.562;18.414;2024-03-17T04:07:33;99469.56;;;6.83;100.00
68193;BME280;55012;47.562;18.414;2024-03-17T04:09:59;99443.59;;;6.78;100.00
68193;BME280;55012;47.562;18.414;2024-03-17T04:12:25;99436.97;;;6.75;100.00
68193;BME280;55012;47.562;18.414;2024-03-17T04:14:50;99420.03;;;6.75;100.00
68193;BME280;55012;47.562;18.414;2024-03-17T04:17:20;99403.75;;;6.71;100.00
68193;BME280;55012;47.562;18.414;2024-03-17T04:19:49;99425.41;;;6.66;100.00
68193;BME280;55012;47.562;18.414;2024-03-17T04:22:16;99399.63;;;6.65;100.00
68193;BME280;55012;47.562;18.414;2024-03-17T04:24:47;99416.69;;;6.61;100.00
68193;BME280;55012;47.562;18.414;2024-03-17T04:27:16;99438.81;;;6.49;100.00
68193;BME280;55012;47.562;18.414;2024-03-17T04:29:42;99456.63;;;6.36;100.00
68193;BME280;55012;47.562;18.414;2024-03-17T04:32:07;99472.91;;;6.31;100.00
68193;BME280;55012;47.562;18.414;2024-03-17T04:34:32;99496.41;;;6.26;100.00
68193;BME280;55012;47.562;18.414;2024-03-17T04:36:58;99498.94;;;6.22;100.00
68193;BME280;55012;47.562;18.414;2024-03-17T04:39:24;99535.25;;;6.19;100.00
68193;BME280;55012;47.562;18.414;2024-03-17T04:41:50;99535.88;;;6.16;100.00
68193;BME280;55012;47.562;18.414;2024-03-17T04:44:16;99555.31;;;6.13;100.00
68193;BME280;55012;47.562;18.414;2024-03-17T04:46:42;99556.84;;;6.06;100.00
68193;BME280;55012;47.562;18.414;2024-03-17T04:49:07;99566.09;;;6.00;100.00
68193;BME280;55012;47.562;18.414;2024-03-17T04:51:33;99526.72;;;5.95;100.00
68193;BME280;55012;47.562;18.414;2024-03-17T04:53:59;99516.00;;;5.95;100.00
68193;BME280;55012;47.562;18.414;2024-03-17T04:56:25;99518.78;;;5.90;100.00
68193;BME280;55012;47.562;18.414;2024-03-17T04:58:50;99484.63;;;5.82;100.00
68193;BME280;55012;47.562;18.414;2024-03-17T05:01:16;99523.13;;;5.77;100.00
68193;BME280;55012;47.562;18.414;2024-03-17T05:03:41;99529.72;;;5.71;100.00
68193;BME280;55012;47.562;18.414;2024-03-17T05:06:06;99548.31;;;5.68;100.00
68193;BME280;55012;47.562;18.414;2024-03-17T05:08:33;99554.59;;;5.63;100.00
68193;BME280;55012;47.562;18.414;2024-03-17T05:11:01;99592.78;;;5.60;100.00
68193;BME280;55012;47.562;18.414;2024-03-17T05:13:30;99608.50;;;5.53;100.00
68193;BME280;55012;47.562;18.414;2024-03-17T05:15:56;99563.78;;;5.48;100.00
68193;BME280;55012;47.562;18.414;2024-03-17T05:18:22;99597.09;;;5.47;100.00
68193;BME280;55012;47.562;18.414;2024-03-17T05:21:00;99606.66;;;5.40;100.00
68193;BME280;55012;47.562;18.414;2024-03-17T05:23:35;99611.31;;;5.34;100.00
68193;BME280;55012;47.562;18.414;2024-03-17T05:26:02;99593.84;;;5.23;100.00
68193;BME280;55012;47.562;18.414;2024-03-17T05:28:29;99616.41;;;5.22;100.00
68193;BME280;55012;47.562;18.414;2024-03-17T05:30:55;99611.13;;;5.17;100.00
68193;BME280;55012;47.562;18.414;2024-03-17T05:33:23;99590.09;;;5.10;100.00
68193;BME280;55012;47.562;18.414;2024-03-17T05:38:26;99623.06;;;5.11;100.00
68193;BME280;55012;47.562;18.414;2024-03-17T05:40:58;99563.66;;;5.17;100.00
68193;BME280;55012;47.562;18.414;2024-03-17T05:43:28;99544.47;;;5.24;100.00
68193;BME280;55012;47.562;18.414;2024-03-17T05:45:57;99525.22;;;5.22;100.00
68193;BME280;55012;47.562;18.414;2024-03-17T05:48:22;99501.75;;;5.27;100.00
68193;BME280;55012;47.562;18.414;2024-03-17T05:50:49;99480.59;;;5.26;100.00
68193;BME280;55012;47.562;18.414;2024-03-17T05:53:16;99519.25;;;5.25;100.00
68193;BME280;55012;47.562;18.414;2024-03-17T05:55:43;99506.72;;;5.20;100.00
68193;BME280;55012;47.562;18.414;2024-03-17T05:58:08;99540.31;;;5.18;100.00
68193;BME280;55012;47.562;18.414;2024-03-17T06:00:37;99531.56;;;5.12;100.00
68193;BME280;55012;47.562;18.414;2024-03-17T06:03:06;99544.50;;;5.10;100.00
68193;BME280;55012;47.562;18.414;2024-03-17T06:05:41;99558.50;;;5.07;100.00
68193;BME280;55012;47.562;18.414;2024-03-17T06:08:07;99562.78;;;5.08;100.00
68193;BME280;55012;47.562;18.414;2024-03-17T06:10:35;99538.34;;;5.10;100.00
68193;BME280;55012;47.562;18.414;2024-03-17T06:13:02;99574.78;;;5.11;100.00
68193;BME280;55012;47.562;18.414;2024-03-17T06:15:27;99528.63;;;5.14;100.00
68193;BME280;55012;47.562;18.414;2024-03-17T06:17:53;99518.16;;;5.12;100.00
68193;BME280;55012;47.562;18.414;2024-03-17T06:20:23;99539.53;;;5.17;100.00
68193;BME280;55012;47.562;18.414;2024-03-17T06:22:50;99546.16;;;5.20;100.00
68193;BME280;55012;47.562;18.414;2024-03-17T06:25:15;99525.81;;;5.19;100.00
68193;BME280;55012;47.562;18.414;2024-03-17T06:27:41;99546.69;;;5.22;100.00
68193;BME280;55012;47.562;18.414;2024-03-17T06:30:13;99523.03;;;5.24;100.00
68193;BME280;55012;47.562;18.414;2024-03-17T06:32:42;99527.28;;;5.25;100.00
68193;BME280;55012;47.562;18.414;2024-03-17T06:35:11;99538.72;;;5.30;100.00
68193;BME280;55012;47.562;18.414;2024-03-17T06:37:36;99551.59;;;5.28;100.00
68193;BME280;55012;47.562;18.414;2024-03-17T06:40:02;99530.16;;;5.28;100.00
68193;BME280;55012;47.562;18.414;2024-03-17T06:42:29;99548.81;;;5.33;100.00
68193;BME280;55012;47.562;18.414;2024-03-17T06:44:55;99549.78;;;5.38;100.00
68193;BME280;55012;47.562;18.414;2024-03-17T06:47:20;99532.91;;;5.37;100.00
68193;BME280;55012;47.562;18.414;2024-03-17T06:49:46;99534.53;;;5.38;100.00
68193;BME280;55012;47.562;18.414;2024-03-17T06:52:12;99571.47;;;5.41;100.00
68193;BME280;55012;47.562;18.414;2024-03-17T06:54:38;99528.84;;;5.40;100.00
68193;BME280;55012;47.562;18.414;2024-03-17T06:57:04;99544.81;;;5.45;100.00
68193;BME280;55012;47.562;18.414;2024-03-17T06:59:32;99558.59;;;5.52;100.00
68193;BME280;55012;47.562;18.414;2024-03-17T07:01:58;99537.03;;;5.57;100.00
68193;BME280;55012;47.562;18.414;2024-03-17T07:04:23;99532.31;;;5.62;100.00
68193;BME280;55012;47.562;18.414;2024-03-17T07:06:49;99544.72;;;5.72;100.00
68193;BME280;55012;47.562;18.414;2024-03-17T07:09:15;99551.53;;;5.78;100.00
68193;BME280;55012;47.562;18.414;2024-03-17T07:11:42;99527.22;;;5.75;100.00
68193;BME280;55012;47.562;18.414;2024-03-17T07:14:08;99537.47;;;5.73;100.00
68193;BME280;55012;47.562;18.414;2024-03-17T07:16:34;99557.53;;;5.75;100.00
68193;BME280;55012;47.562;18.414;2024-03-17T07:19:01;99514.28;;;5.77;100.00
68193;BME280;55012;47.562;18.414;2024-03-17T07:21:27;99526.78;;;5.81;100.00
68193;BME280;55012;47.562;18.414;2024-03-17T07:23:52;99524.91;;;5.82;100.00
68193;BME280;55012;47.562;18.414;2024-03-17T07:26:18;99524.34;;;5.94;100.00
68193;BME280;55012;47.562;18.414;2024-03-17T07:28:43;99528.69;;;6.03;100.00
68193;BME280;55012;47.562;18.414;2024-03-17T07:31:09;99542.31;;;6.07;100.00
68193;BME280;55012;47.562;18.414;2024-03-17T07:33:35;99529.03;;;6.10;100.00
68193;BME280;55012;47.562;18.414;2024-03-17T07:36:00;99516.75;;;6.18;100.00
68193;BME280;55012;47.562;18.414;2024-03-17T07:38:28;99492.94;;;6.25;100.00
68193;BME280;55012;47.562;18.414;2024-03-17T07:40:58;99553.44;;;6.23;100.00
68193;BME280;55012;47.562;18.414;2024-03-17T07:43:25;99532.56;;;6.19;100.00
68193;BME280;55012;47.562;18.414;2024-03-17T07:46:16;99521.69;;;6.25;100.00
68193;BME280;55012;47.562;18.414;2024-03-17T07:48:43;99526.31;;;6.33;100.00
68193;BME280;55012;47.562;18.414;2024-03-17T07:51:14;99536.78;;;6.43;100.00
68193;BME280;55012;47.562;18.414;2024-03-17T07:53:41;99520.66;;;6.43;100.00
68193;BME280;55012;47.562;18.414;2024-03-17T07:56:10;99522.88;;;6.41;100.00
68193;BME280;55012;47.562;18.414;2024-03-17T07:58:37;99523.53;;;6.46;100.00
68193;BME280;55012;47.562;18.414;2024-03-17T08:01:10;99534.13;;;6.52;100.00
68193;BME280;55012;47.562;18.414;2024-03-17T08:03:38;99558.50;;;6.55;100.00
68193;BME280;55012;47.562;18.414;2024-03-17T08:06:05;99537.34;;;6.62;100.00
68193;BME280;55012;47.562;18.414;2024-03-17T08:08:31;99535.16;;;6.64;100.00
68193;BME280;55012;47.562;18.414;2024-03-17T08:10:57;99531.50;;;6.69;100.00
68193;BME280;55012;47.562;18.414;2024-03-17T08:13:23;99546.53;;;6.70;100.00
68193;BME280;55012;47.562;18.414;2024-03-17T08:15:56;99556.38;;;6.74;100.00
68193;BME280;55012;47.562;18.414;2024-03-17T08:18:22;99558.13;;;6.79;100.00
68193;BME280;55012;47.562;18.414;2024-03-17T08:20:47;99558.97;;;6.97;100.00
68193;BME280;55012;47.562;18.414;2024-03-17T08:23:13;99563.59;;;7.14;100.00
68193;BME280;55012;47.562;18.414;2024-03-17T08:25:39;99569.16;;;7.43;100.00
68193;BME280;55012;47.562;18.414;2024-03-17T08:28:05;99595.94;;;7.57;100.00
68193;BME280;55012;47.562;18.414;2024-03-17T08:30:31;99606.72;;;7.48;100.00
68193;BME280;55012;47.562;18.414;2024-03-17T08:32:57;99673.97;;;7.40;100.00
68193;BME280;55012;47.562;18.414;2024-03-17T08:35:24;99688.66;;;7.25;100.00
68193;BME280;55012;47.562;18.414;2024-03-17T08:37:49;99618.03;;;7.19;100.00
68193;BME280;55012;47.562;18.414;2024-03-17T08:40:17;99619.81;;;7.32;100.00
68193;BME280;55012;47.562;18.414;2024-03-17T08:42:42;99611.75;;;7.41;100.00
68193;BME280;55012;47.562;18.414;2024-03-17T08:45:08;99602.75;;;7.54;100.00
68193;BME280;55012;47.562;18.414;2024-03-17T08:47:34;99640.59;;;7.58;100.00
68193;BME280;55012;47.562;18.414;2024-03-17T08:49:59;99631.25;;;7.55;100.00
68193;BME280;55012;47.562;18.414;2024-03-17T08:52:29;99624.13;;;7.59;100.00
68193;BME280;55012;47.562;18.414;2024-03-17T08:54:57;99662.59;;;7.51;100.00
68193;BME280;55012;47.562;18.414;2024-03-17T08:57:22;99673.22;;;7.48;100.00
68193;BME280;55012;47.562;18.414;2024-03-17T08:59:48;99691.59;;;7.54;100.00
68193;BME280;55012;47.562;18.414;2024-03-17T09:02:14;99679.09;;;7.67;100.00
68193;BME280;55012;47.562;18.414;2024-03-17T09:04:43;99685.00;;;7.78;100.00
68193;BME280;55012;47.562;18.414;2024-03-17T09:07:08;99695.28;;;7.76;100.00
68193;BME280;55012;47.562;18.414;2024-03-17T09:09:34;99675.63;;;7.84;100.00
68193;BME280;55012;47.562;18.414;2024-03-17T09:11:59;99714.13;;;7.84;100.00
68193;BME280;55012;47.562;18.414;2024-03-17T09:14:25;99716.03;;;7.75;100.00
68193;BME280;55012;47.562;18.414;2024-03-17T09:16:50;99711.88;;;7.69;100.00
68193;BME280;55012;47.562;18.414;2024-03-17T09:19:16;99724.88;;;7.67;100.00
68193;BME280;55012;47.562;18.414;2024-03-17T09:21:41;99692.72;;;7.62;100.00
68193;BME280;55012;47.562;18.414;2024-03-17T09:24:07;99710.63;;;7.75;100.00
68193;BME280;55012;47.562;18.414;2024-03-17T09:26:36;99689.75;;;7.72;100.00
68193;BME280;55012;47.562;18.414;2024-03-17T09:29:04;99690.06;;;7.79;100.00
68193;BME280;55012;47.562;18.414;2024-03-17T09:31:30;99732.19;;;7.84;100.00
68193;BME280;55012;47.562;18.414;2024-03-17T09:33:55;99697.66;;;7.77;100.00
68193;BME280;55012;47.562;18.414;2024-03-17T09:36:21;99730.13;;;7.72;100.00
68193;BME280;55012;47.562;18.414;2024-03-17T09:38:46;99699.41;;;7.73;100.00
68193;BME280;55012;47.562;18.414;2024-03-17T09:41:20;99693.53;;;7.71;100.00
68193;BME280;55012;47.562;18.414;2024-03-17T09:43:47;99688.63;;;7.65;100.00
68193;BME280;55012;47.562;18.414;2024-03-17T09:46:14;99710.16;;;7.65;100.00
68193;BME280;55012;47.562;18.414;2024-03-17T09:48:41;99727.78;;;7.79;100.00
68193;BME280;55012;47.562;18.414;2024-03-17T09:51:07;99757.25;;;7.93;100.00
68193;BME280;55012;47.562;18.414;2024-03-17T09:53:40;99755.19;;;7.81;100.00
68193;BME280;55012;47.562;18.414;2024-03-17T09:56:11;99711.44;;;7.76;100.00
68193;BME280;55012;47.562;18.414;2024-03-17T09:58:37;99730.78;;;7.78;100.00
68193;BME280;55012;47.562;18.414;2024-03-17T10:01:03;99746.78;;;7.83;100.00
68193;BME280;55012;47.562;18.414;2024-03-17T10:03:48;99740.81;;;7.95;100.00
68193;BME280;55012;47.562;18.414;2024-03-17T10:06:21;99728.59;;;7.97;100.00
68193;BME280;55012;47.562;18.414;2024-03-17T10:08:48;99726.69;;;8.06;100.00
68193;BME280;55012;47.562;18.414;2024-03-17T10:11:16;99781.38;;;8.07;100.00
68193;BME280;55012;47.562;18.414;2024-03-17T10:13:47;99721.47;;;8.10;100.00
68193;BME280;55012;47.562;18.414;2024-03-17T10:16:25;99740.31;;;8.18;100.00
68193;BME280;55012;47.562;18.414;2024-03-17T10:19:05;99723.06;;;8.20;100.00
68193;BME280;55012;47.562;18.414;2024-03-17T10:21:32;99724.34;;;8.22;100.00
68193;BME280;55012;47.562;18.414;2024-03-17T10:24:37;99736.06;;;8.26;100.00
68193;BME280;55012;47.562;18.414;2024-03-17T10:26:57;99737.00;;;8.22;100.00
68193;BME280;55012;47.562;18.414;2024-03-17T10:29:26;99759.84;;;8.33;100.00
68193;BME280;55012;47.562;18.414;2024-03-17T10:31:54;99756.56;;;8.44;100.00
68193;BME280;55012;47.562;18.414;2024-03-17T10:34:20;99768.44;;;8.52;100.00
68193;BME280;55012;47.562;18.414;2024-03-17T10:36:46;99747.34;;;8.63;100.00
68193;BME280;55012;47.562;18.414;2024-03-17T10:39:27;99739.88;;;8.60;100.00
68193;BME280;55012;47.562;18.414;2024-03-17T10:42:03;99755.28;;;8.51;100.00
68193;BME280;55012;47.562;18.414;2024-03-17T10:44:30;99730.22;;;8.50;100.00
68193;BME280;55012;47.562;18.414;2024-03-17T10:46:57;99757.34;;;8.54;100.00
68193;BME280;55012;47.562;18.414;2024-03-17T10:49:29;99772.56;;;8.58;100.00
68193;BME280;55012;47.562;18.414;2024-03-17T10:52:01;99771.13;;;8.69;100.00
68193;BME280;55012;47.562;18.414;2024-03-17T10:54:27;99741.94;;;8.71;100.00
68193;BME280;55012;47.562;18.414;2024-03-17T10:59:52;99835.88;;;8.69;100.00
68193;BME280;55012;47.562;18.414;2024-03-17T11:02:21;99812.22;;;8.66;100.00
68193;BME280;55012;47.562;18.414;2024-03-17T11:04:59;99816.66;;;8.62;100.00
68193;BME280;55012;47.562;18.414;2024-03-17T11:07:25;99813.00;;;8.58;100.00
68193;BME280;55012;47.562;18.414;2024-03-17T11:09:54;99779.72;;;8.63;100.00
68193;BME280;55012;47.562;18.414;2024-03-17T11:12:45;99814.28;;;8.78;100.00
68193;BME280;55012;47.562;18.414;2024-03-17T11:17:44;99763.97;;;8.73;100.00
68193;BME280;55012;47.562;18.414;2024-03-17T11:20:27;99770.47;;;8.81;100.00
68193;BME280;55012;47.562;18.414;2024-03-17T11:22:58;99766.97;;;8.89;100.00
68193;BME280;55012;47.562;18.414;2024-03-17T11:27:55;99742.22;;;8.96;100.00
68193;BME280;55012;47.562;18.414;2024-03-17T11:46:58;99847.44;;;9.05;100.00
68193;BME280;55012;47.562;18.414;2024-03-17T11:49:29;99816.16;;;9.12;100.00
68193;BME280;55012;47.562;18.414;2024-03-17T11:51:57;99783.53;;;9.26;100.00
68193;BME280;55012;47.562;18.414;2024-03-17T11:54:27;99828.97;;;9.24;100.00
68193;BME280;55012;47.562;18.414;2024-03-17T11:56:55;99861.38;;;9.24;100.00
68193;BME280;55012;47.562;18.414;2024-03-17T11:59:21;99829.97;;;9.11;100.00
68193;BME280;55012;47.562;18.414;2024-03-17T12:01:48;99840.56;;;9.24;100.00
68193;BME280;55012;47.562;18.414;2024-03-17T12:04:15;99916.31;;;9.37;100.00
68193;BME280;55012;47.562;18.414;2024-03-17T12:06:48;99859.94;;;9.35;100.00
68193;BME280;55012;47.562;18.414;2024-03-17T12:09:30;99866.75;;;9.33;100.00
68193;BME280;55012;47.562;18.414;2024-03-17T12:12:05;99877.56;;;9.33;100.00
68193;BME280;55012;47.562;18.414;2024-03-17T12:14:32;99853.25;;;9.33;100.00
68193;BME280;55012;47.562;18.414;2024-03-17T12:17:00;99876.94;;;9.27;100.00
68193;BME280;55012;47.562;18.414;2024-03-17T12:19:27;99862.47;;;9.32;100.00
68193;BME280;55012;47.562;18.414;2024-03-17T12:21:53;99858.50;;;9.29;100.00
68193;BME280;55012;47.562;18.414;2024-03-17T12:24:21;99884.25;;;9.18;100.00
68193;BME280;55012;47.562;18.414;2024-03-17T12:26:48;99857.56;;;9.16;100.00
68193;BME280;55012;47.562;18.414;2024-03-17T12:29:37;99832.66;;;9.11;100.00
68193;BME280;55012;47.562;18.414;2024-03-17T12:32:18;99812.97;;;9.19;100.00
68193;BME280;55012;47.562;18.414;2024-03-17T12:34:45;99830.56;;;9.25;100.00
68193;BME280;55012;47.562;18.414;2024-03-17T12:39:44;99817.56;;;9.27;100.00
68193;BME280;55012;47.562;18.414;2024-03-17T12:42:11;99818.47;;;9.40;100.00
68193;BME280;55012;47.562;18.414;2024-03-17T12:44:48;99783.03;;;9.41;100.00
68193;BME280;55012;47.562;18.414;2024-03-17T12:52:27;99806.75;;;9.27;100.00
68193;BME280;55012;47.562;18.414;2024-03-17T13:00:37;99763.13;;;9.54;100.00
68193;BME280;55012;47.562;18.414;2024-03-17T13:03:06;99805.09;;;9.52;100.00
68193;BME280;55012;47.562;18.414;2024-03-17T13:05:33;99783.31;;;9.48;100.00
68193;BME280;55012;47.562;18.414;2024-03-17T13:07:59;99757.44;;;9.47;100.00
68193;BME280;55012;47.562;18.414;2024-03-17T13:10:26;99727.56;;;9.52;100.00
68193;BME280;55012;47.562;18.414;2024-03-17T13:13:04;99742.72;;;9.66;100.00
68193;BME280;55012;47.562;18.414;2024-03-17T13:15:31;99771.94;;;9.72;100.00
68193;BME280;55012;47.562;18.414;2024-03-17T13:17:57;99733.66;;;9.70;100.00
68193;BME280;55012;47.562;18.414;2024-03-17T13:20:23;99704.06;;;9.74;100.00
68193;BME280;55012;47.562;18.414;2024-03-17T13:22:49;99767.03;;;9.66;100.00
68193;BME280;55012;47.562;18.414;2024-03-17T13:25:16;99733.03;;;9.65;100.00
68193;BME280;55012;47.562;18.414;2024-03-17T13:27:43;99705.19;;;9.73;100.00
68193;BME280;55012;47.562;18.414;2024-03-17T13:30:08;99712.31;;;9.77;100.00
68193;BME280;55012;47.562;18.414;2024-03-17T13:32:35;99710.06;;;9.79;100.00